sensor_id;sensor_type;location;lat;lon;timestamp;temperature;humidity
28763;DHT22;15918;51.270;6.522;2024-01-25T00:00:51;11.90;70.50
28763;DHT22;15918;51.270;6.522;2024-01-25T00:03:17;11.80;70.50
28763;DHT22;15918;51.270;6.522;2024-01-25T00:05:43;11.90;70.60
28763;DHT22;15918;51.270;6.522;2024-01-25T00:08:09;11.90;70.60
28763;DHT22;15918;51.270;6.522;2024-01-25T00:10:34;11.80;70.60
28763;DHT22;15918;51.270;6.522;2024-01-25T00:13:00;11.80;70.60
28763;DHT22;15918;51.270;6.522;2024-01-25T00:15:27;11.80;70.60
28763;DHT22;15918;51.270;6.522;2024-01-25T00:17:52;11.80;70.60
28763;DHT22;15918;51.270;6.522;2024-01-25T00:20:18;11.80;70.60
28763;DHT22;15918;51.270;6.522;2024-01-25T00:22:43;11.80;70.70
28763;DHT22;15918;51.270;6.522;2024-01-25T00:25:09;11.80;70.70
28763;DHT22;15918;51.270;6.522;2024-01-25T00:27:35;11.80;70.70
28763;DHT22;15918;51.270;6.522;2024-01-25T00:30:00;11.80;70.70
28763;DHT22;15918;51.270;6.522;2024-01-25T00:32:26;11.80;70.70
28763;DHT22;15918;51.270;6.522;2024-01-25T00:34:52;11.80;70.70
28763;DHT22;15918;51.270;6.522;2024-01-25T00:37:18;11.80;70.70
28763;DHT22;15918;51.270;6.522;2024-01-25T00:39:44;11.80;70.70
28763;DHT22;15918;51.270;6.522;2024-01-25T00:42:12;11.80;70.80
28763;DHT22;15918;51.270;6.522;2024-01-25T00:44:39;11.80;70.70
28763;DHT22;15918;51.270;6.522;2024-01-25T00:47:05;11.80;70.80
28763;DHT22;15918;51.270;6.522;2024-01-25T00:49:30;11.80;70.80
28763;DHT22;15918;51.270;6.522;2024-01-25T00:51:59;11.80;70.70
28763;DHT22;15918;51.270;6.522;2024-01-25T00:54:28;11.80;70.70
28763;DHT22;15918;51.270;6.522;2024-01-25T00:56:54;11.80;70.90
28763;DHT22;15918;51.270;6.522;2024-01-25T00:59:20;11.80;70.80
28763;DHT22;15918;51.270;6.522;2024-01-25T01:01:47;11.80;70.70
28763;DHT22;15918;51.270;6.522;2024-01-25T01:04:16;11.80;70.80
28763;DHT22;15918;51.270;6.522;2024-01-25T01:06:42;11.70;70.70
28763;DHT22;15918;51.270;6.522;2024-01-25T01:09:08;11.70;70.80
28763;DHT22;15918;51.270;6.522;2024-01-25T01:11:34;11.70;70.80
28763;DHT22;15918;51.270;6.522;2024-01-25T01:14:01;11.70;71.10
28763;DHT22;15918;51.270;6.522;2024-01-25T01:16:26;11.70;70.80
28763;DHT22;15918;51.270;6.522;2024-01-25T01:18:52;11.70;70.80
28763;DHT22;15918;51.270;6.522;2024-01-25T01:21:17;11.70;70.80
28763;DHT22;15918;51.270;6.522;2024-01-25T01:23:43;11.70;70.80
28763;DHT22;15918;51.270;6.522;2024-01-25T01:26:08;11.70;70.80
28763;DHT22;15918;51.270;6.522;2024-01-25T01:28:34;11.70;70.80
28763;DHT22;15918;51.270;6.522;2024-01-25T01:31:00;11.70;70.80
28763;DHT22;15918;51.270;6.522;2024-01-25T01:33:25;11.70;70.80
28763;DHT22;15918;51.270;6.522;2024-01-25T01:35:51;11.70;70.80
28763;DHT22;15918;51.270;6.522;2024-01-25T01:38:16;11.70;70.80
28763;DHT22;15918;51.270;6.522;2024-01-25T01:40:44;11.60;70.70
28763;DHT22;15918;51.270;6.522;2024-01-25T01:43:18;11.60;70.70
28763;DHT22;15918;51.270;6.522;2024-01-25T01:45:44;11.60;70.60
28763;DHT22;15918;51.270;6.522;2024-01-25T01:48:09;11.60;70.80
28763;DHT22;15918;51.270;6.522;2024-01-25T01:50:35;11.60;70.80
28763;DHT22;15918;51.270;6.522;2024-01-25T01:53:00;11.60;70.70
28763;DHT22;15918;51.270;6.522;2024-01-25T01:55:26;11.60;70.80
28763;DHT22;15918;51.270;6.522;2024-01-25T01:57:52;11.60;70.70
28763;DHT22;15918;51.270;6.522;2024-01-25T02:00:18;11.60;70.80
28763;DHT22;15918;51.270;6.522;2024-01-25T02:02:45;11.60;70.70
28763;DHT22;15918;51.270;6.522;2024-01-25T02:05:10;11.60;70.70
28763;DHT22;15918;51.270;6.522;2024-01-25T02:07:37;11.60;70.80
28763;DHT22;15918;51.270;6.522;2024-01-25T02:10:03;11.50;70.70
28763;DHT22;15918;51.270;6.522;2024-01-25T02:12:30;11.50;70.80
28763;DHT22;15918;51.270;6.522;2024-01-25T02:14:56;11.50;70.90
28763;DHT22;15918;51.270;6.522;2024-01-25T02:17:21;11.50;70.90
28763;DHT22;15918;51.270;6.522;2024-01-25T02:19:47;11.50;71.40
28763;DHT22;15918;51.270;6.522;2024-01-25T02:22:16;11.50;70.90
28763;DHT22;15918;51.270;6.522;2024-01-25T02:24:42;11.50;70.90
28763;DHT22;15918;51.270;6.522;2024-01-25T02:27:07;11.50;70.90
28763;DHT22;15918;51.270;6.522;2024-01-25T02:29:33;11.50;70.80
28763;DHT22;15918;51.270;6.522;2024-01-25T02:31:58;11.50;70.80
28763;DHT22;15918;51.270;6.522;2024-01-25T02:34:24;11.50;70.80
28763;DHT22;15918;51.270;6.522;2024-01-25T02:36:49;11.50;70.80
28763;DHT22;15918;51.270;6.522;2024-01-25T02:39:15;11.50;70.80
28763;DHT22;15918;51.270;6.522;2024-01-25T02:41:41;11.50;70.70
28763;DHT22;15918;51.270;6.522;2024-01-25T02:44:07;11.50;70.70
28763;DHT22;15918;51.270;6.522;2024-01-25T02:46:32;11.40;70.70
28763;DHT22;15918;51.270;6.522;2024-01-25T02:48:58;11.50;70.70
28763;DHT22;15918;51.270;6.522;2024-01-25T02:51:24;11.50;70.80
28763;DHT22;15918;51.270;6.522;2024-01-25T02:54:08;11.40;70.80
28763;DHT22;15918;51.270;6.522;2024-01-25T02:56:33;11.50;70.50
28763;DHT22;15918;51.270;6.522;2024-01-25T02:59:01;11.40;70.90
28763;DHT22;15918;51.270;6.522;2024-01-25T03:01:27;11.40;70.90
28763;DHT22;15918;51.270;6.522;2024-01-25T03:03:53;11.40;71.00
28763;DHT22;15918;51.270;6.522;2024-01-25T03:06:19;11.40;71.00
28763;DHT22;15918;51.270;6.522;2024-01-25T03:08:45;11.40;71.10
28763;DHT22;15918;51.270;6.522;2024-01-25T03:11:11;11.40;71.00
28763;DHT22;15918;51.270;6.522;2024-01-25T03:13:36;11.40;71.10
28763;DHT22;15918;51.270;6.522;2024-01-25T03:16:02;11.40;71.10
28763;DHT22;15918;51.270;6.522;2024-01-25T03:18:27;11.40;71.10
28763;DHT22;15918;51.270;6.522;2024-01-25T03:20:53;11.40;71.10
28763;DHT22;15918;51.270;6.522;2024-01-25T03:23:18;11.40;71.00
28763;DHT22;15918;51.270;6.522;2024-01-25T03:25:44;11.30;70.90
28763;DHT22;15918;51.270;6.522;2024-01-25T03:28:10;11.30;71.00
28763;DHT22;15918;51.270;6.522;2024-01-25T03:30:38;11.30;71.00
28763;DHT22;15918;51.270;6.522;2024-01-25T03:33:04;11.30;71.00
28763;DHT22;15918;51.270;6.522;2024-01-25T03:35:29;11.30;70.90
28763;DHT22;15918;51.270;6.522;2024-01-25T03:37:55;11.30;70.90
28763;DHT22;15918;51.270;6.522;2024-01-25T03:40:20;11.30;71.00
28763;DHT22;15918;51.270;6.522;2024-01-25T03:42:46;11.20;70.80
28763;DHT22;15918;51.270;6.522;2024-01-25T03:45:12;11.30;70.90
28763;DHT22;15918;51.270;6.522;2024-01-25T03:47:37;11.30;70.90
28763;DHT22;15918;51.270;6.522;2024-01-25T03:50:03;11.20;70.90
28763;DHT22;15918;51.270;6.522;2024-01-25T03:52:29;11.20;70.90
28763;DHT22;15918;51.270;6.522;2024-01-25T03:54:55;11.20;70.90
28763;DHT22;15918;51.270;6.522;2024-01-25T03:57:21;11.20;70.90
28763;DHT22;15918;51.270;6.522;2024-01-25T03:59:47;11.20;70.90
28763;DHT22;15918;51.270;6.522;2024-01-25T04:02:12;11.20;71.00
28763;DHT22;15918;51.270;6.522;2024-01-25T04:04:38;11.20;71.00
28763;DHT22;15918;51.270;6.522;2024-01-25T04:07:03;11.20;71.00
28763;DHT22;15918;51.270;6.522;2024-01-25T04:09:29;11.20;71.10
28763;DHT22;15918;51.270;6.522;2024-01-25T04:11:55;11.20;71.00
28763;DHT22;15918;51.270;6.522;2024-01-25T04:14:21;11.20;71.10
28763;DHT22;15918;51.270;6.522;2024-01-25T04:16:47;11.20;71.00
28763;DHT22;15918;51.270;6.522;2024-01-25T04:19:12;11.10;70.90
28763;DHT22;15918;51.270;6.522;2024-01-25T04:21:38;11.10;70.90
28763;DHT22;15918;51.270;6.522;2024-01-25T04:24:04;11.20;70.90
28763;DHT22;15918;51.270;6.522;2024-01-25T04:26:30;11.20;70.90
28763;DHT22;15918;51.270;6.522;2024-01-25T04:28:55;11.20;70.80
28763;DHT22;15918;51.270;6.522;2024-01-25T04:31:21;11.10;70.70
28763;DHT22;15918;51.270;6.522;2024-01-25T04:33:47;11.10;70.60
28763;DHT22;15918;51.270;6.522;2024-01-25T04:36:12;11.10;70.60
28763;DHT22;15918;51.270;6.522;2024-01-25T04:38:38;11.10;70.50
28763;DHT22;15918;51.270;6.522;2024-01-25T04:41:04;11.10;70.50
28763;DHT22;15918;51.270;6.522;2024-01-25T04:43:36;11.10;70.50
28763;DHT22;15918;51.270;6.522;2024-01-25T04:46:02;11.10;70.40
28763;DHT22;15918;51.270;6.522;2024-01-25T04:48:29;11.10;70.40
28763;DHT22;15918;51.270;6.522;2024-01-25T04:50:56;11.10;70.20
28763;DHT22;15918;51.270;6.522;2024-01-25T04:53:22;11.10;70.10
28763;DHT22;15918;51.270;6.522;2024-01-25T04:55:48;11.10;69.90
28763;DHT22;15918;51.270;6.522;2024-01-25T04:58:13;11.10;69.90
28763;DHT22;15918;51.270;6.522;2024-01-25T05:00:39;11.10;70.00
28763;DHT22;15918;51.270;6.522;2024-01-25T05:03:05;11.10;70.00
28763;DHT22;15918;51.270;6.522;2024-01-25T05:05:30;11.00;69.90
28763;DHT22;15918;51.270;6.522;2024-01-25T05:07:56;11.00;69.80
28763;DHT22;15918;51.270;6.522;2024-01-25T05:10:22;11.00;69.70
28763;DHT22;15918;51.270;6.522;2024-01-25T05:12:48;11.00;69.70
28763;DHT22;15918;51.270;6.522;2024-01-25T05:15:14;11.00;69.60
28763;DHT22;15918;51.270;6.522;2024-01-25T05:17:39;11.00;69.50
28763;DHT22;15918;51.270;6.522;2024-01-25T05:20:06;11.00;69.40
28763;DHT22;15918;51.270;6.522;2024-01-25T05:22:31;11.00;69.20
28763;DHT22;15918;51.270;6.522;2024-01-25T05:24:57;11.00;69.30
28763;DHT22;15918;51.270;6.522;2024-01-25T05:27:23;11.00;69.20
28763;DHT22;15918;51.270;6.522;2024-01-25T05:29:49;11.00;69.20
28763;DHT22;15918;51.270;6.522;2024-01-25T05:32:14;11.00;69.10
28763;DHT22;15918;51.270;6.522;2024-01-25T05:34:40;11.00;69.10
28763;DHT22;15918;51.270;6.522;2024-01-25T05:37:05;10.90;69.10
28763;DHT22;15918;51.270;6.522;2024-01-25T05:39:32;10.90;69.10
28763;DHT22;15918;51.270;6.522;2024-01-25T05:41:58;10.90;69.30
28763;DHT22;15918;51.270;6.522;2024-01-25T05:44:23;10.90;69.30
28763;DHT22;15918;51.270;6.522;2024-01-25T05:46:49;10.90;69.20
28763;DHT22;15918;51.270;6.522;2024-01-25T05:49:14;10.90;69.10
28763;DHT22;15918;51.270;6.522;2024-01-25T05:51:40;10.80;69.00
28763;DHT22;15918;51.270;6.522;2024-01-25T05:54:05;10.80;68.90
28763;DHT22;15918;51.270;6.522;2024-01-25T05:56:31;10.80;68.80
28763;DHT22;15918;51.270;6.522;2024-01-25T05:58:57;10.80;68.80
28763;DHT22;15918;51.270;6.522;2024-01-25T06:01:22;10.80;68.90
28763;DHT22;15918;51.270;6.522;2024-01-25T06:03:48;10.80;68.80
28763;DHT22;15918;51.270;6.522;2024-01-25T06:06:13;10.80;68.60
28763;DHT22;15918;51.270;6.522;2024-01-25T06:08:39;10.80;68.60
28763;DHT22;15918;51.270;6.522;2024-01-25T06:11:05;10.80;68.50
28763;DHT22;15918;51.270;6.522;2024-01-25T06:13:31;10.80;68.40
28763;DHT22;15918;51.270;6.522;2024-01-25T06:15:57;10.80;68.30
28763;DHT22;15918;51.270;6.522;2024-01-25T06:18:22;10.80;68.20
28763;DHT22;15918;51.270;6.522;2024-01-25T06:20:48;10.80;68.20
28763;DHT22;15918;51.270;6.522;2024-01-25T06:23:14;10.70;68.10
28763;DHT22;15918;51.270;6.522;2024-01-25T06:25:39;10.70;68.30
28763;DHT22;15918;51.270;6.522;2024-01-25T06:28:05;10.70;68.30
28763;DHT22;15918;51.270;6.522;2024-01-25T06:30:30;10.70;68.40
28763;DHT22;15918;51.270;6.522;2024-01-25T06:32:56;10.70;68.50
28763;DHT22;15918;51.270;6.522;2024-01-25T06:35:21;10.70;68.50
28763;DHT22;15918;51.270;6.522;2024-01-25T06:37:47;10.70;68.40
28763;DHT22;15918;51.270;6.522;2024-01-25T06:40:13;10.60;68.30
28763;DHT22;15918;51.270;6.522;2024-01-25T06:42:38;10.60;68.40
28763;DHT22;15918;51.270;6.522;2024-01-25T06:45:04;10.60;68.40
28763;DHT22;15918;51.270;6.522;2024-01-25T06:47:30;10.60;68.40
28763;DHT22;15918;51.270;6.522;2024-01-25T06:49:55;10.60;68.40
28763;DHT22;15918;51.270;6.522;2024-01-25T06:52:21;10.60;68.50
28763;DHT22;15918;51.270;6.522;2024-01-25T06:54:46;10.50;68.40
28763;DHT22;15918;51.270;6.522;2024-01-25T06:57:12;10.50;68.40
28763;DHT22;15918;51.270;6.522;2024-01-25T06:59:39;10.50;68.40
28763;DHT22;15918;51.270;6.522;2024-01-25T07:02:05;10.50;68.50
28763;DHT22;15918;51.270;6.522;2024-01-25T07:04:31;10.50;68.60
28763;DHT22;15918;51.270;6.522;2024-01-25T07:06:58;10.50;68.60
28763;DHT22;15918;51.270;6.522;2024-01-25T07:09:25;10.50;68.70
28763;DHT22;15918;51.270;6.522;2024-01-25T07:11:51;10.50;68.80
28763;DHT22;15918;51.270;6.522;2024-01-25T07:14:16;10.40;68.70
28763;DHT22;15918;51.270;6.522;2024-01-25T07:16:42;10.50;68.80
28763;DHT22;15918;51.270;6.522;2024-01-25T07:19:08;10.40;68.70
28763;DHT22;15918;51.270;6.522;2024-01-25T07:21:33;10.40;68.80
28763;DHT22;15918;51.270;6.522;2024-01-25T07:24:01;10.40;68.80
28763;DHT22;15918;51.270;6.522;2024-01-25T07:26:27;10.40;68.80
28763;DHT22;15918;51.270;6.522;2024-01-25T07:28:53;10.30;68.80
28763;DHT22;15918;51.270;6.522;2024-01-25T07:31:26;10.40;68.90
28763;DHT22;15918;51.270;6.522;2024-01-25T07:33:52;10.30;68.90
28763;DHT22;15918;51.270;6.522;2024-01-25T07:36:18;10.30;69.00
28763;DHT22;15918;51.270;6.522;2024-01-25T07:38:44;10.30;69.00
28763;DHT22;15918;51.270;6.522;2024-01-25T07:41:12;10.30;69.00
28763;DHT22;15918;51.270;6.522;2024-01-25T07:43:38;10.30;69.10
28763;DHT22;15918;51.270;6.522;2024-01-25T07:46:03;10.30;69.00
28763;DHT22;15918;51.270;6.522;2024-01-25T07:48:29;10.30;69.00
28763;DHT22;15918;51.270;6.522;2024-01-25T07:50:54;10.30;69.00
28763;DHT22;15918;51.270;6.522;2024-01-25T07:53:20;10.30;69.00
28763;DHT22;15918;51.270;6.522;2024-01-25T07:55:45;10.30;68.90
28763;DHT22;15918;51.270;6.522;2024-01-25T07:58:11;10.30;68.90
28763;DHT22;15918;51.270;6.522;2024-01-25T08:00:37;10.30;68.90
28763;DHT22;15918;51.270;6.522;2024-01-25T08:03:03;10.30;68.90
28763;DHT22;15918;51.270;6.522;2024-01-25T08:05:28;10.30;69.00
28763;DHT22;15918;51.270;6.522;2024-01-25T08:07:54;10.30;69.00
28763;DHT22;15918;51.270;6.522;2024-01-25T08:10:19;10.30;69.00
28763;DHT22;15918;51.270;6.522;2024-01-25T08:12:45;10.30;69.00
28763;DHT22;15918;51.270;6.522;2024-01-25T08:15:13;10.30;69.00
28763;DHT22;15918;51.270;6.522;2024-01-25T08:17:39;10.30;69.10
28763;DHT22;15918;51.270;6.522;2024-01-25T08:20:05;10.30;69.20
28763;DHT22;15918;51.270;6.522;2024-01-25T08:22:31;10.20;69.30
28763;DHT22;15918;51.270;6.522;2024-01-25T08:24:57;10.20;69.50
28763;DHT22;15918;51.270;6.522;2024-01-25T08:27:24;10.20;69.50
28763;DHT22;15918;51.270;6.522;2024-01-25T08:29:49;10.20;69.60
28763;DHT22;15918;51.270;6.522;2024-01-25T08:32:15;10.20;69.70
28763;DHT22;15918;51.270;6.522;2024-01-25T08:34:40;10.20;69.80
28763;DHT22;15918;51.270;6.522;2024-01-25T08:37:06;10.20;69.90
28763;DHT22;15918;51.270;6.522;2024-01-25T08:39:32;10.20;70.10
28763;DHT22;15918;51.270;6.522;2024-01-25T08:41:57;10.20;70.20
28763;DHT22;15918;51.270;6.522;2024-01-25T08:44:27;10.20;70.40
28763;DHT22;15918;51.270;6.522;2024-01-25T08:46:52;10.20;70.50
28763;DHT22;15918;51.270;6.522;2024-01-25T08:49:18;10.20;70.80
28763;DHT22;15918;51.270;6.522;2024-01-25T08:51:43;10.20;71.00
28763;DHT22;15918;51.270;6.522;2024-01-25T08:54:09;10.20;71.20
28763;DHT22;15918;51.270;6.522;2024-01-25T08:56:35;10.20;71.50
28763;DHT22;15918;51.270;6.522;2024-01-25T08:59:00;10.20;71.70
28763;DHT22;15918;51.270;6.522;2024-01-25T09:01:26;10.20;71.90
28763;DHT22;15918;51.270;6.522;2024-01-25T09:03:52;10.20;72.10
28763;DHT22;15918;51.270;6.522;2024-01-25T09:06:17;10.20;72.30
28763;DHT22;15918;51.270;6.522;2024-01-25T09:08:43;10.20;72.40
28763;DHT22;15918;51.270;6.522;2024-01-25T09:11:09;10.20;72.50
28763;DHT22;15918;51.270;6.522;2024-01-25T09:13:35;10.20;72.60
28763;DHT22;15918;51.270;6.522;2024-01-25T09:16:00;10.20;72.70
28763;DHT22;15918;51.270;6.522;2024-01-25T09:18:26;10.20;72.90
28763;DHT22;15918;51.270;6.522;2024-01-25T09:20:51;10.20;73.00
28763;DHT22;15918;51.270;6.522;2024-01-25T09:23:17;10.20;73.10
28763;DHT22;15918;51.270;6.522;2024-01-25T09:25:44;10.20;73.20
28763;DHT22;15918;51.270;6.522;2024-01-25T09:28:10;10.30;73.40
28763;DHT22;15918;51.270;6.522;2024-01-25T09:30:38;10.30;73.40
28763;DHT22;15918;51.270;6.522;2024-01-25T09:33:04;10.30;73.50
28763;DHT22;15918;51.270;6.522;2024-01-25T09:35:30;10.30;73.60
28763;DHT22;15918;51.270;6.522;2024-01-25T09:37:56;10.30;73.70
28763;DHT22;15918;51.270;6.522;2024-01-25T09:40:21;10.30;73.70
28763;DHT22;15918;51.270;6.522;2024-01-25T09:42:47;10.30;73.70
28763;DHT22;15918;51.270;6.522;2024-01-25T09:45:17;10.30;73.80
28763;DHT22;15918;51.270;6.522;2024-01-25T09:47:43;10.30;73.90
28763;DHT22;15918;51.270;6.522;2024-01-25T09:50:09;10.30;74.60
28763;DHT22;15918;51.270;6.522;2024-01-25T09:52:35;10.30;73.90
28763;DHT22;15918;51.270;6.522;2024-01-25T09:55:01;10.40;74.20
28763;DHT22;15918;51.270;6.522;2024-01-25T09:57:28;10.40;74.10
28763;DHT22;15918;51.270;6.522;2024-01-25T09:59:54;10.40;74.10
28763;DHT22;15918;51.270;6.522;2024-01-25T10:02:20;10.40;74.10
28763;DHT22;15918;51.270;6.522;2024-01-25T10:04:50;10.40;74.10
28763;DHT22;15918;51.270;6.522;2024-01-25T10:07:39;10.40;74.10
28763;DHT22;15918;51.270;6.522;2024-01-25T10:10:05;10.40;74.10
28763;DHT22;15918;51.270;6.522;2024-01-25T10:12:34;10.40;74.30
28763;DHT22;15918;51.270;6.522;2024-01-25T10:15:00;10.50;74.40
28763;DHT22;15918;51.270;6.522;2024-01-25T10:17:27;10.50;74.50
28763;DHT22;15918;51.270;6.522;2024-01-25T10:19:53;10.60;74.60
28763;DHT22;15918;51.270;6.522;2024-01-25T10:22:19;10.50;74.50
28763;DHT22;15918;51.270;6.522;2024-01-25T10:24:44;10.50;74.50
28763;DHT22;15918;51.270;6.522;2024-01-25T10:27:10;10.50;74.50
28763;DHT22;15918;51.270;6.522;2024-01-25T10:29:37;10.50;74.60
28763;DHT22;15918;51.270;6.522;2024-01-25T10:32:03;10.50;74.60
28763;DHT22;15918;51.270;6.522;2024-01-25T10:34:30;10.60;74.80
28763;DHT22;15918;51.270;6.522;2024-01-25T10:36:57;10.60;74.80
28763;DHT22;15918;51.270;6.522;2024-01-25T10:39:24;10.60;74.70
28763;DHT22;15918;51.270;6.522;2024-01-25T10:41:50;10.60;74.70
28763;DHT22;15918;51.270;6.522;2024-01-25T10:44:17;10.60;74.70
28763;DHT22;15918;51.270;6.522;2024-01-25T10:46:48;10.60;74.80
28763;DHT22;15918;51.270;6.522;2024-01-25T10:49:16;10.70;74.70
28763;DHT22;15918;51.270;6.522;2024-01-25T10:51:43;10.70;74.70
28763;DHT22;15918;51.270;6.522;2024-01-25T10:54:09;10.60;74.60
28763;DHT22;15918;51.270;6.522;2024-01-25T10:56:35;10.60;74.60
28763;DHT22;15918;51.270;6.522;2024-01-25T10:59:01;10.70;74.50
28763;DHT22;15918;51.270;6.522;2024-01-25T11:01:27;10.80;74.60
28763;DHT22;15918;51.270;6.522;2024-01-25T11:03:53;10.80;74.60
28763;DHT22;15918;51.270;6.522;2024-01-25T11:06:21;10.80;74.60
28763;DHT22;15918;51.270;6.522;2024-01-25T11:08:47;10.80;74.60
28763;DHT22;15918;51.270;6.522;2024-01-25T11:11:14;10.70;74.50
28763;DHT22;15918;51.270;6.522;2024-01-25T11:13:41;10.80;74.60
28763;DHT22;15918;51.270;6.522;2024-01-25T11:16:17;10.80;74.60
28763;DHT22;15918;51.270;6.522;2024-01-25T11:18:50;10.80;74.50
28763;DHT22;15918;51.270;6.522;2024-01-25T11:21:37;10.80;74.50
28763;DHT22;15918;51.270;6.522;2024-01-25T11:24:03;10.80;74.50
28763;DHT22;15918;51.270;6.522;2024-01-25T11:26:32;10.80;74.60
28763;DHT22;15918;51.270;6.522;2024-01-25T11:28:58;10.80;74.60
28763;DHT22;15918;51.270;6.522;2024-01-25T11:31:26;10.80;74.60
28763;DHT22;15918;51.270;6.522;2024-01-25T11:33:56;10.80;74.40
28763;DHT22;15918;51.270;6.522;2024-01-25T11:36:22;10.80;74.30
28763;DHT22;15918;51.270;6.522;2024-01-25T11:38:48;10.80;74.30
28763;DHT22;15918;51.270;6.522;2024-01-25T11:41:14;10.90;74.40
28763;DHT22;15918;51.270;6.522;2024-01-25T11:43:40;10.90;74.30
28763;DHT22;15918;51.270;6.522;2024-01-25T11:46:06;10.90;74.30
28763;DHT22;15918;51.270;6.522;2024-01-25T11:48:32;10.90;74.30
28763;DHT22;15918;51.270;6.522;2024-01-25T11:51:00;10.90;74.10
28763;DHT22;15918;51.270;6.522;2024-01-25T11:53:26;11.00;74.20
28763;DHT22;15918;51.270;6.522;2024-01-25T11:55:53;10.90;74.10
28763;DHT22;15918;51.270;6.522;2024-01-25T11:58:20;11.00;74.20
28763;DHT22;15918;51.270;6.522;2024-01-25T12:00:46;11.00;74.20
28763;DHT22;15918;51.270;6.522;2024-01-25T12:03:11;11.00;74.20
28763;DHT22;15918;51.270;6.522;2024-01-25T12:05:37;11.00;74.10
28763;DHT22;15918;51.270;6.522;2024-01-25T12:08:12;11.00;74.10
28763;DHT22;15918;51.270;6.522;2024-01-25T12:10:38;11.00;74.10
28763;DHT22;15918;51.270;6.522;2024-01-25T12:13:07;10.90;74.20
28763;DHT22;15918;51.270;6.522;2024-01-25T12:15:33;11.00;74.20
28763;DHT22;15918;51.270;6.522;2024-01-25T12:17:59;11.00;74.30
28763;DHT22;15918;51.270;6.522;2024-01-25T12:20:24;11.00;74.30
28763;DHT22;15918;51.270;6.522;2024-01-25T12:22:51;11.00;74.30
28763;DHT22;15918;51.270;6.522;2024-01-25T12:25:17;11.00;74.30
28763;DHT22;15918;51.270;6.522;2024-01-25T12:27:43;11.00;74.20
28763;DHT22;15918;51.270;6.522;2024-01-25T12:30:12;11.00;74.20
28763;DHT22;15918;51.270;6.522;2024-01-25T12:32:37;11.10;74.20
28763;DHT22;15918;51.270;6.522;2024-01-25T12:35:04;11.00;74.20
28763;DHT22;15918;51.270;6.522;2024-01-25T12:37:30;11.00;74.20
28763;DHT22;15918;51.270;6.522;2024-01-25T12:39:55;11.00;74.20
28763;DHT22;15918;51.270;6.522;2024-01-25T12:42:21;11.10;74.20
28763;DHT22;15918;51.270;6.522;2024-01-25T12:44:48;11.10;74.20
28763;DHT22;15918;51.270;6.522;2024-01-25T12:47:14;11.10;74.20
28763;DHT22;15918;51.270;6.522;2024-01-25T12:49:41;11.10;74.10
28763;DHT22;15918;51.270;6.522;2024-01-25T12:52:11;11.10;74.10
28763;DHT22;15918;51.270;6.522;2024-01-25T12:54:37;11.10;74.10
28763;DHT22;15918;51.270;6.522;2024-01-25T12:57:04;11.10;74.00
28763;DHT22;15918;51.270;6.522;2024-01-25T12:59:29;11.10;73.90
28763;DHT22;15918;51.270;6.522;2024-01-25T13:01:55;11.10;73.90
28763;DHT22;15918;51.270;6.522;2024-01-25T13:04:21;11.20;74.00
28763;DHT22;15918;51.270;6.522;2024-01-25T13:06:48;11.20;73.90
28763;DHT22;15918;51.270;6.522;2024-01-25T13:09:14;11.10;73.80
28763;DHT22;15918;51.270;6.522;2024-01-25T13:11:41;11.20;73.80
28763;DHT22;15918;51.270;6.522;2024-01-25T13:14:06;11.20;73.80
28763;DHT22;15918;51.270;6.522;2024-01-25T13:16:33;11.20;73.80
28763;DHT22;15918;51.270;6.522;2024-01-25T13:18:58;11.20;73.70
28763;DHT22;15918;51.270;6.522;2024-01-25T13:21:24;11.30;73.70
28763;DHT22;15918;51.270;6.522;2024-01-25T13:23:50;11.30;73.60
28763;DHT22;15918;51.270;6.522;2024-01-25T13:26:15;11.20;73.50
28763;DHT22;15918;51.270;6.522;2024-01-25T13:28:41;11.20;73.40
28763;DHT22;15918;51.270;6.522;2024-01-25T13:31:07;11.20;73.40
28763;DHT22;15918;51.270;6.522;2024-01-25T13:33:32;11.20;73.40
28763;DHT22;15918;51.270;6.522;2024-01-25T13:35:58;11.30;73.50
28763;DHT22;15918;51.270;6.522;2024-01-25T13:38:24;11.30;73.50
28763;DHT22;15918;51.270;6.522;2024-01-25T13:40:50;11.20;73.40
28763;DHT22;15918;51.270;6.522;2024-01-25T13:43:16;11.30;73.40
28763;DHT22;15918;51.270;6.522;2024-01-25T13:45:41;11.30;73.40
28763;DHT22;15918;51.270;6.522;2024-01-25T13:48:07;11.30;73.40
28763;DHT22;15918;51.270;6.522;2024-01-25T13:50:32;11.30;73.40
28763;DHT22;15918;51.270;6.522;2024-01-25T13:52:58;11.30;73.50
28763;DHT22;15918;51.270;6.522;2024-01-25T13:55:24;11.30;73.60
28763;DHT22;15918;51.270;6.522;2024-01-25T13:57:49;11.30;73.50
28763;DHT22;15918;51.270;6.522;2024-01-25T14:00:15;11.30;73.50
28763;DHT22;15918;51.270;6.522;2024-01-25T14:02:41;11.30;73.50
28763;DHT22;15918;51.270;6.522;2024-01-25T14:05:13;11.40;73.50
28763;DHT22;15918;51.270;6.522;2024-01-25T14:07:39;11.40;73.40
28763;DHT22;15918;51.270;6.522;2024-01-25T14:10:05;11.40;73.50
28763;DHT22;15918;51.270;6.522;2024-01-25T14:12:31;11.40;73.40
28763;DHT22;15918;51.270;6.522;2024-01-25T14:14:56;11.40;73.50
28763;DHT22;15918;51.270;6.522;2024-01-25T14:17:22;11.40;73.50
28763;DHT22;15918;51.270;6.522;2024-01-25T14:19:48;11.40;73.40
28763;DHT22;15918;51.270;6.522;2024-01-25T14:22:14;11.40;73.30
28763;DHT22;15918;51.270;6.522;2024-01-25T14:24:39;11.40;73.30
28763;DHT22;15918;51.270;6.522;2024-01-25T14:27:05;11.40;73.30
28763;DHT22;15918;51.270;6.522;2024-01-25T14:29:30;11.40;73.30
28763;DHT22;15918;51.270;6.522;2024-01-25T14:31:59;11.40;73.30
28763;DHT22;15918;51.270;6.522;2024-01-25T14:34:25;11.40;73.30
28763;DHT22;15918;51.270;6.522;2024-01-25T14:36:50;11.40;73.30
28763;DHT22;15918;51.270;6.522;2024-01-25T14:39:16;11.40;73.20
28763;DHT22;15918;51.270;6.522;2024-01-25T14:41:45;11.40;73.20
28763;DHT22;15918;51.270;6.522;2024-01-25T14:44:11;11.40;73.10
28763;DHT22;15918;51.270;6.522;2024-01-25T14:46:37;11.40;73.10
28763;DHT22;15918;51.270;6.522;2024-01-25T14:49:05;11.40;73.00
28763;DHT22;15918;51.270;6.522;2024-01-25T14:51:30;11.40;73.00
28763;DHT22;15918;51.270;6.522;2024-01-25T14:53:56;11.40;73.00
28763;DHT22;15918;51.270;6.522;2024-01-25T14:56:22;11.40;72.90
28763;DHT22;15918;51.270;6.522;2024-01-25T14:58:48;11.40;72.90
28763;DHT22;15918;51.270;6.522;2024-01-25T15:01:14;11.50;73.00
28763;DHT22;15918;51.270;6.522;2024-01-25T15:03:46;11.50;72.90
28763;DHT22;15918;51.270;6.522;2024-01-25T15:06:12;11.50;73.00
28763;DHT22;15918;51.270;6.522;2024-01-25T15:08:38;11.50;72.90
28763;DHT22;15918;51.270;6.522;2024-01-25T15:11:04;11.50;72.90
28763;DHT22;15918;51.270;6.522;2024-01-25T15:13:29;11.50;72.80
28763;DHT22;15918;51.270;6.522;2024-01-25T15:15:55;11.50;72.90
28763;DHT22;15918;51.270;6.522;2024-01-25T15:18:21;11.50;72.80
28763;DHT22;15918;51.270;6.522;2024-01-25T15:20:47;11.50;72.80
28763;DHT22;15918;51.270;6.522;2024-01-25T15:23:13;11.50;72.80